Terminal Aerodrome Forecast
Issued by NWS

Home | Current Version | Previous Version | Graphics & Text | Print | Product List | Glossary On
Versions: 1 2 3 4 5 6 7 8 9 10 11 12 13 14 15 16 17 18 19 20 21 22 23
000
FTUS43 KGRB 280800 AAA
TAFAUW
TAF AMD
KAUW 280800Z 2808/2906 27005KT P6SM SCT009
     FM280900 29008KT P6SM SCT035 SCT070
     FM281200 27008KT P6SM SCT025 BKN070
     FM290000 30007KT P6SM SCT070
     FM290200 34008KT P6SM SCT070=

USA.gov is the U.S. government's official web portal to all federal, state and local government web resources and services.